This is the latest recevied weather packets stored in our database for station/object KJ5BMY-13. If no packets are shown the sender has not sent any weather packets the latest 10 day(s).
| Time | Temp. | Humidity | Pressure | Rain* | Wind** | Luminosity | Snow |
|---|---|---|---|---|---|---|---|
| 1777773663 | 19.44° C | 50% | 1021.2 hPa | 0 mm | - | - | - |
| 1777773359 | 19.44° C | 50% | 1021 hPa | 0 mm | - | - | - |
| 1777772752 | 20° C | 47% | 1021.3 hPa | 0 mm | - | - | - |
| 1777772147 | 20° C | 46% | 1021.2 hPa | 0 mm | - | - | - |
| 1777771845 | 20° C | 46% | 1020.9 hPa | 0 mm | - | - | - |
| 1777771542 | 20.56° C | 44% | 1021.1 hPa | 0 mm | - | - | - |
| 1777771238 | 20.56° C | 43% | 1021 hPa | 0 mm | - | - | - |
| 1777769421 | 22.78° C | 39% | 1020.8 hPa | 0 mm | - | - | - |
| 1777766996 | 23.89° C | 36% | 1020.5 hPa | 0 mm | - | - | - |
| 1777761541 | 27.22° C | 31% | 1020.8 hPa | 0 mm | - | - | - |
| 1777761238 | 27.78° C | 30% | 1021 hPa | 0 mm | - | - | - |
| 1777760936 | 27.78° C | 29% | 1021.1 hPa | 0 mm | - | - | - |
| 1777760634 | 27.22° C | 31% | 1021 hPa | 0 mm | - | - | - |
| 1777760329 | 27.22° C | 29% | 1021 hPa | 0 mm | - | - | - |
| 1777760026 | 27.78° C | 28% | 1021.2 hPa | 0 mm | - | - | - |
| 1777759723 | 27.78° C | 28% | 1021.1 hPa | 0 mm | - | - | - |
| 1777759419 | 27.78° C | 29% | 1021.2 hPa | 0 mm | - | - | - |
| 1777758813 | 27.22° C | 28% | 1021.3 hPa | 0 mm | - | - | - |
| 1777758510 | 27.22° C | 30% | 1021.3 hPa | 0 mm | - | - | - |
| 1777758206 | 27.22° C | 29% | 1021.2 hPa | 0 mm | - | - | - |
| 1777757904 | 27.22° C | 29% | 1021.4 hPa | 0 mm | - | - | - |
| 1777757601 | 27.22° C | 30% | 1021.3 hPa | 0 mm | - | - | - |
| 1777757300 | 27.78° C | 27% | 1021.4 hPa | 0 mm | - | - | - |
| 1777756998 | 27.22° C | 31% | 1021.5 hPa | 0 mm | - | - | - |
| 1777755482 | 26.67° C | 28% | 1021.9 hPa | 0 mm | - | - | - |
* Rain latest hour (hover to see other rain measurements)
** Current wind speed in m/s (hover to see current wind gust speed)